Aviation Digital Data Service (ADDS)

Output produced by METARs form (0200 UTC 15 September 2014)
found at http://aviationweather.gov/adds/metars/
 
KEWR 142323Z 1500/1606 VRB04KT P6SM SKC 
     FM152000 14006KT P6SM SKC 
     FM160000 VRB04KT P6SM SCT250